This is the latest recevied weather packets stored in our database for station/object OK1ZDJ-13. If no packets are shown the sender has not sent any weather packets the latest 10 day(s).
| Time | Temp. | Humidity | Pressure | Rain* | Wind** | Luminosity | Snow |
|---|---|---|---|---|---|---|---|
| 1777280238 | 11.67° C | 39% | 1025.8 hPa | - | - | - | - |
| 1777279638 | 11.11° C | 40% | 1025.9 hPa | - | - | - | - |
| 1777279038 | 10.56° C | 43% | 1025.9 hPa | - | - | - | - |
| 1777277838 | 10° C | 41% | 1026 hPa | - | - | - | - |
| 1777277238 | 10° C | 46% | 1026 hPa | - | - | - | - |
| 1777276638 | 9.44° C | 47% | 1026.1 hPa | - | - | - | - |
| 1777276038 | 9.44° C | 49% | 1026 hPa | - | - | - | - |
| 1777275438 | 9.44° C | 50% | 1026.1 hPa | - | - | - | - |
| 1777274838 | 8.89° C | 49% | 1026.1 hPa | - | - | - | - |
| 1777274238 | 8.89° C | 48% | 1026.2 hPa | - | - | - | - |
| 1777273638 | 8.89° C | 49% | 1026.3 hPa | - | - | - | - |
| 1777273038 | 8.89° C | 48% | 1026.4 hPa | - | - | - | - |
| 1777272438 | 10° C | 45% | 1026.3 hPa | - | - | - | - |
| 1777271838 | 12.22° C | 41% | 1026.3 hPa | - | - | - | - |
| 1777271238 | 12.78° C | 39% | 1026.4 hPa | - | - | - | - |
| 1777270638 | 11.67° C | 43% | 1026.3 hPa | - | - | - | - |
| 1777270038 | 10.56° C | 45% | 1026.4 hPa | - | - | - | - |
| 1777269438 | 9.44° C | 48% | 1026.3 hPa | - | - | - | - |
| 1777268840 | 7.78° C | 54% | 1026.4 hPa | - | - | - | - |
| 1777268238 | 6.11° C | 60% | 1026.3 hPa | - | - | - | - |
| 1777267638 | 4.44° C | 66% | 1026.3 hPa | - | - | - | - |
| 1777267038 | 2.22° C | 80% | 1026.4 hPa | - | - | - | - |
| 1777266438 | 0.56° C | 83% | 1026.3 hPa | - | - | - | - |
| 1777265838 | 0° C | 81% | 1026.2 hPa | - | - | - | - |
| 1777265238 | -0.56° C | 82% | 1026.2 hPa | - | - | - | - |
* Rain since midnight (hover to see other rain measurements)
** Current wind speed in m/s (hover to see current wind gust speed)